20/05/05 - 22h:29mDenunciar

McDonnell Douglas F/A-18C Hornet

Imagem de Joan Martorell, retirada do site Jetphotos.net.





METAR SBPB 210100Z 11005KT 9999 FEW017 BKN300 27/26 Q1011=

Comentários (0)

Fotos postadas a mais de 15 dias não podem receber comentários.